sensor_id;sensor_type;location;lat;lon;timestamp;P1;durP1;ratioP1;P2;durP2;ratioP2
57327;SDS011;43162;51.040;18.244;2023-09-19T00:00:05;17.40;;;11.90;;
57327;SDS011;43162;51.040;18.244;2023-09-19T00:02:32;13.60;;;11.80;;
57327;SDS011;43162;51.040;18.244;2023-09-19T00:04:58;18.70;;;11.90;;
57327;SDS011;43162;51.040;18.244;2023-09-19T00:07:24;14.60;;;12.30;;
57327;SDS011;43162;51.040;18.244;2023-09-19T00:09:49;16.00;;;12.60;;
57327;SDS011;43162;51.040;18.244;2023-09-19T00:12:15;14.20;;;12.00;;
57327;SDS011;43162;51.040;18.244;2023-09-19T00:14:40;14.10;;;12.10;;
57327;SDS011;43162;51.040;18.244;2023-09-19T00:17:06;12.30;;;11.10;;
57327;SDS011;43162;51.040;18.244;2023-09-19T00:19:36;15.70;;;12.10;;
57327;SDS011;43162;51.040;18.244;2023-09-19T00:22:03;14.80;;;13.20;;
57327;SDS011;43162;51.040;18.244;2023-09-19T00:24:29;14.90;;;12.20;;
57327;SDS011;43162;51.040;18.244;2023-09-19T00:26:56;17.30;;;12.60;;
57327;SDS011;43162;51.040;18.244;2023-09-19T00:29:24;13.50;;;11.60;;
57327;SDS011;43162;51.040;18.244;2023-09-19T00:31:50;13.90;;;12.50;;
57327;SDS011;43162;51.040;18.244;2023-09-19T00:34:17;15.20;;;12.20;;
57327;SDS011;43162;51.040;18.244;2023-09-19T00:36:42;19.40;;;12.60;;
57327;SDS011;43162;51.040;18.244;2023-09-19T00:39:08;17.10;;;13.20;;
57327;SDS011;43162;51.040;18.244;2023-09-19T00:41:34;15.70;;;12.50;;
57327;SDS011;43162;51.040;18.244;2023-09-19T00:44:01;19.20;;;13.60;;
57327;SDS011;43162;51.040;18.244;2023-09-19T00:46:27;13.90;;;12.40;;
57327;SDS011;43162;51.040;18.244;2023-09-19T00:48:53;14.80;;;12.60;;
57327;SDS011;43162;51.040;18.244;2023-09-19T00:51:19;15.40;;;12.40;;
57327;SDS011;43162;51.040;18.244;2023-09-19T00:53:46;15.30;;;12.50;;
57327;SDS011;43162;51.040;18.244;2023-09-19T00:56:12;16.60;;;12.40;;
57327;SDS011;43162;51.040;18.244;2023-09-19T00:58:38;13.80;;;12.40;;
57327;SDS011;43162;51.040;18.244;2023-09-19T01:01:04;14.00;;;11.70;;
57327;SDS011;43162;51.040;18.244;2023-09-19T01:03:35;15.50;;;12.70;;
57327;SDS011;43162;51.040;18.244;2023-09-19T01:06:01;16.00;;;12.80;;
57327;SDS011;43162;51.040;18.244;2023-09-19T01:08:27;16.30;;;13.10;;
57327;SDS011;43162;51.040;18.244;2023-09-19T01:11:02;18.90;;;13.30;;
57327;SDS011;43162;51.040;18.244;2023-09-19T01:16:14;15.60;;;11.90;;
57327;SDS011;43162;51.040;18.244;2023-09-19T01:18:50;14.40;;;12.80;;
57327;SDS011;43162;51.040;18.244;2023-09-19T01:21:22;13.70;;;11.20;;
57327;SDS011;43162;51.040;18.244;2023-09-19T01:31:44;16.80;;;15.00;;
57327;SDS011;43162;51.040;18.244;2023-09-19T01:34:10;17.60;;;14.70;;
57327;SDS011;43162;51.040;18.244;2023-09-19T01:36:36;16.30;;;13.80;;
57327;SDS011;43162;51.040;18.244;2023-09-19T01:39:06;16.80;;;14.90;;
57327;SDS011;43162;51.040;18.244;2023-09-19T01:41:41;18.10;;;15.10;;
57327;SDS011;43162;51.040;18.244;2023-09-19T01:44:11;15.50;;;13.90;;
57327;SDS011;43162;51.040;18.244;2023-09-19T01:46:39;17.90;;;14.30;;
57327;SDS011;43162;51.040;18.244;2023-09-19T01:49:30;17.20;;;15.30;;
57327;SDS011;43162;51.040;18.244;2023-09-19T01:51:56;18.30;;;15.50;;
57327;SDS011;43162;51.040;18.244;2023-09-19T01:54:26;18.50;;;15.50;;
57327;SDS011;43162;51.040;18.244;2023-09-19T02:00:05;17.20;;;13.80;;
57327;SDS011;43162;51.040;18.244;2023-09-19T02:02:52;17.20;;;13.60;;
57327;SDS011;43162;51.040;18.244;2023-09-19T02:05:23;15.10;;;13.20;;
57327;SDS011;43162;51.040;18.244;2023-09-19T02:07:58;21.90;;;14.80;;
57327;SDS011;43162;51.040;18.244;2023-09-19T02:10:24;18.40;;;14.40;;
57327;SDS011;43162;51.040;18.244;2023-09-19T02:12:49;18.80;;;15.30;;
57327;SDS011;43162;51.040;18.244;2023-09-19T02:15:15;20.50;;;16.40;;
57327;SDS011;43162;51.040;18.244;2023-09-19T02:17:41;17.40;;;14.40;;
57327;SDS011;43162;51.040;18.244;2023-09-19T02:20:08;25.50;;;16.10;;
57327;SDS011;43162;51.040;18.244;2023-09-19T02:22:35;17.90;;;15.20;;
57327;SDS011;43162;51.040;18.244;2023-09-19T02:25:01;20.20;;;17.40;;
57327;SDS011;43162;51.040;18.244;2023-09-19T02:27:27;21.60;;;15.70;;
57327;SDS011;43162;51.040;18.244;2023-09-19T02:29:52;22.70;;;16.20;;
57327;SDS011;43162;51.040;18.244;2023-09-19T02:32:18;23.40;;;17.60;;
57327;SDS011;43162;51.040;18.244;2023-09-19T02:34:43;19.90;;;17.10;;
57327;SDS011;43162;51.040;18.244;2023-09-19T02:37:09;21.30;;;16.80;;
57327;SDS011;43162;51.040;18.244;2023-09-19T02:39:35;21.20;;;16.70;;
57327;SDS011;43162;51.040;18.244;2023-09-19T02:42:01;20.30;;;15.50;;
57327;SDS011;43162;51.040;18.244;2023-09-19T02:44:27;24.20;;;16.50;;
57327;SDS011;43162;51.040;18.244;2023-09-19T02:46:52;19.40;;;16.20;;
57327;SDS011;43162;51.040;18.244;2023-09-19T02:49:18;24.10;;;17.30;;
57327;SDS011;43162;51.040;18.244;2023-09-19T02:51:44;23.10;;;16.80;;
57327;SDS011;43162;51.040;18.244;2023-09-19T02:54:09;21.30;;;15.40;;
57327;SDS011;43162;51.040;18.244;2023-09-19T02:56:35;24.00;;;15.90;;
57327;SDS011;43162;51.040;18.244;2023-09-19T02:59:04;17.90;;;14.90;;
57327;SDS011;43162;51.040;18.244;2023-09-19T03:01:30;19.80;;;15.90;;
57327;SDS011;43162;51.040;18.244;2023-09-19T03:03:55;21.80;;;15.50;;
57327;SDS011;43162;51.040;18.244;2023-09-19T03:06:21;18.10;;;15.60;;
57327;SDS011;43162;51.040;18.244;2023-09-19T03:08:47;19.30;;;16.10;;
57327;SDS011;43162;51.040;18.244;2023-09-19T03:11:14;21.60;;;16.30;;
57327;SDS011;43162;51.040;18.244;2023-09-19T03:13:41;18.70;;;15.60;;
57327;SDS011;43162;51.040;18.244;2023-09-19T03:16:08;21.60;;;16.50;;
57327;SDS011;43162;51.040;18.244;2023-09-19T03:18:33;20.80;;;16.60;;
57327;SDS011;43162;51.040;18.244;2023-09-19T03:20:59;20.70;;;15.90;;
57327;SDS011;43162;51.040;18.244;2023-09-19T03:23:27;18.90;;;16.20;;
57327;SDS011;43162;51.040;18.244;2023-09-19T03:25:53;21.60;;;15.50;;
57327;SDS011;43162;51.040;18.244;2023-09-19T03:28:19;22.80;;;17.20;;
57327;SDS011;43162;51.040;18.244;2023-09-19T03:30:46;22.40;;;16.80;;
57327;SDS011;43162;51.040;18.244;2023-09-19T03:33:11;20.70;;;17.90;;
57327;SDS011;43162;51.040;18.244;2023-09-19T03:35:38;20.10;;;16.90;;
57327;SDS011;43162;51.040;18.244;2023-09-19T03:38:05;24.10;;;18.20;;
57327;SDS011;43162;51.040;18.244;2023-09-19T03:40:30;23.00;;;18.50;;
57327;SDS011;43162;51.040;18.244;2023-09-19T03:42:55;20.30;;;16.70;;
57327;SDS011;43162;51.040;18.244;2023-09-19T03:45:21;20.00;;;16.90;;
57327;SDS011;43162;51.040;18.244;2023-09-19T03:47:47;22.10;;;16.60;;
57327;SDS011;43162;51.040;18.244;2023-09-19T03:50:15;19.00;;;15.70;;
57327;SDS011;43162;51.040;18.244;2023-09-19T03:52:45;23.30;;;15.30;;
57327;SDS011;43162;51.040;18.244;2023-09-19T03:55:11;17.40;;;15.40;;
57327;SDS011;43162;51.040;18.244;2023-09-19T03:57:36;21.80;;;14.70;;
57327;SDS011;43162;51.040;18.244;2023-09-19T04:00:02;16.00;;;12.90;;
57327;SDS011;43162;51.040;18.244;2023-09-19T04:02:30;13.80;;;8.00;;
57327;SDS011;43162;51.040;18.244;2023-09-19T04:04:58;14.80;;;10.20;;
57327;SDS011;43162;51.040;18.244;2023-09-19T04:07:24;18.30;;;10.50;;
57327;SDS011;43162;51.040;18.244;2023-09-19T04:09:54;14.60;;;9.20;;
57327;SDS011;43162;51.040;18.244;2023-09-19T04:12:20;16.10;;;7.50;;
57327;SDS011;43162;51.040;18.244;2023-09-19T04:14:46;11.90;;;7.00;;
57327;SDS011;43162;51.040;18.244;2023-09-19T04:17:11;8.60;;;7.10;;
57327;SDS011;43162;51.040;18.244;2023-09-19T04:19:37;11.90;;;7.60;;
57327;SDS011;43162;51.040;18.244;2023-09-19T04:22:02;11.50;;;6.60;;
57327;SDS011;43162;51.040;18.244;2023-09-19T04:24:29;11.30;;;5.60;;
57327;SDS011;43162;51.040;18.244;2023-09-19T04:26:55;7.20;;;4.70;;
57327;SDS011;43162;51.040;18.244;2023-09-19T04:29:21;9.90;;;4.70;;
57327;SDS011;43162;51.040;18.244;2023-09-19T04:31:46;8.00;;;4.80;;
57327;SDS011;43162;51.040;18.244;2023-09-19T04:34:12;7.70;;;4.40;;
57327;SDS011;43162;51.040;18.244;2023-09-19T04:36:41;7.60;;;5.20;;
57327;SDS011;43162;51.040;18.244;2023-09-19T04:39:07;11.80;;;4.20;;
57327;SDS011;43162;51.040;18.244;2023-09-19T04:41:33;7.70;;;3.70;;
57327;SDS011;43162;51.040;18.244;2023-09-19T04:43:59;8.40;;;3.70;;
57327;SDS011;43162;51.040;18.244;2023-09-19T04:46:25;5.50;;;4.10;;
57327;SDS011;43162;51.040;18.244;2023-09-19T04:48:50;5.90;;;3.60;;
57327;SDS011;43162;51.040;18.244;2023-09-19T04:51:16;7.40;;;3.20;;
57327;SDS011;43162;51.040;18.244;2023-09-19T04:53:44;7.30;;;3.20;;
57327;SDS011;43162;51.040;18.244;2023-09-19T04:56:09;8.00;;;3.40;;
57327;SDS011;43162;51.040;18.244;2023-09-19T04:58:35;7.80;;;3.50;;
57327;SDS011;43162;51.040;18.244;2023-09-19T05:01:00;7.40;;;3.60;;
57327;SDS011;43162;51.040;18.244;2023-09-19T05:03:29;11.50;;;3.90;;
57327;SDS011;43162;51.040;18.244;2023-09-19T05:05:55;10.00;;;4.10;;
57327;SDS011;43162;51.040;18.244;2023-09-19T05:08:20;7.50;;;3.20;;
57327;SDS011;43162;51.040;18.244;2023-09-19T05:10:47;6.40;;;3.40;;
57327;SDS011;43162;51.040;18.244;2023-09-19T05:13:14;5.40;;;3.20;;
57327;SDS011;43162;51.040;18.244;2023-09-19T05:15:40;4.80;;;3.50;;
57327;SDS011;43162;51.040;18.244;2023-09-19T05:18:05;5.90;;;3.00;;
57327;SDS011;43162;51.040;18.244;2023-09-19T05:20:31;9.10;;;4.10;;
57327;SDS011;43162;51.040;18.244;2023-09-19T05:23:03;6.60;;;3.50;;
57327;SDS011;43162;51.040;18.244;2023-09-19T05:25:33;5.70;;;2.70;;
57327;SDS011;43162;51.040;18.244;2023-09-19T05:30:29;5.40;;;2.70;;
57327;SDS011;43162;51.040;18.244;2023-09-19T05:32:54;6.30;;;2.90;;
57327;SDS011;43162;51.040;18.244;2023-09-19T05:35:20;4.20;;;2.20;;
57327;SDS011;43162;51.040;18.244;2023-09-19T05:37:47;7.60;;;3.20;;
57327;SDS011;43162;51.040;18.244;2023-09-19T05:40:16;7.70;;;2.60;;
57327;SDS011;43162;51.040;18.244;2023-09-19T05:42:42;4.10;;;2.40;;
57327;SDS011;43162;51.040;18.244;2023-09-19T05:45:09;12.20;;;2.90;;
57327;SDS011;43162;51.040;18.244;2023-09-19T05:47:40;4.80;;;2.50;;
57327;SDS011;43162;51.040;18.244;2023-09-19T05:50:11;6.30;;;2.70;;
57327;SDS011;43162;51.040;18.244;2023-09-19T05:52:37;6.00;;;2.90;;
57327;SDS011;43162;51.040;18.244;2023-09-19T05:55:06;3.30;;;1.90;;
57327;SDS011;43162;51.040;18.244;2023-09-19T05:57:33;6.70;;;2.60;;
57327;SDS011;43162;51.040;18.244;2023-09-19T05:59:59;6.60;;;2.10;;
57327;SDS011;43162;51.040;18.244;2023-09-19T06:02:24;5.30;;;2.90;;
57327;SDS011;43162;51.040;18.244;2023-09-19T06:04:54;6.20;;;2.50;;
57327;SDS011;43162;51.040;18.244;2023-09-19T06:07:21;6.90;;;2.80;;
57327;SDS011;43162;51.040;18.244;2023-09-19T06:09:47;7.20;;;3.30;;
57327;SDS011;43162;51.040;18.244;2023-09-19T06:12:13;5.50;;;2.80;;
57327;SDS011;43162;51.040;18.244;2023-09-19T06:14:42;7.00;;;2.90;;
57327;SDS011;43162;51.040;18.244;2023-09-19T06:17:08;6.60;;;3.40;;
57327;SDS011;43162;51.040;18.244;2023-09-19T06:19:34;6.40;;;3.10;;
57327;SDS011;43162;51.040;18.244;2023-09-19T06:21:59;5.90;;;3.30;;
57327;SDS011;43162;51.040;18.244;2023-09-19T06:24:25;5.30;;;3.40;;
57327;SDS011;43162;51.040;18.244;2023-09-19T06:26:51;7.20;;;3.00;;
57327;SDS011;43162;51.040;18.244;2023-09-19T06:29:17;4.70;;;3.60;;
57327;SDS011;43162;51.040;18.244;2023-09-19T06:31:43;7.00;;;3.20;;
57327;SDS011;43162;51.040;18.244;2023-09-19T06:34:10;8.70;;;2.90;;
57327;SDS011;43162;51.040;18.244;2023-09-19T06:36:35;5.60;;;2.40;;
57327;SDS011;43162;51.040;18.244;2023-09-19T06:39:01;5.10;;;1.90;;
57327;SDS011;43162;51.040;18.244;2023-09-19T06:41:29;6.80;;;2.20;;
57327;SDS011;43162;51.040;18.244;2023-09-19T06:43:55;3.60;;;1.70;;
57327;SDS011;43162;51.040;18.244;2023-09-19T06:46:21;3.60;;;2.10;;
57327;SDS011;43162;51.040;18.244;2023-09-19T06:48:46;4.70;;;1.90;;
57327;SDS011;43162;51.040;18.244;2023-09-19T06:51:13;5.60;;;2.10;;
57327;SDS011;43162;51.040;18.244;2023-09-19T06:53:41;4.80;;;1.90;;
57327;SDS011;43162;51.040;18.244;2023-09-19T06:56:07;3.20;;;1.70;;
57327;SDS011;43162;51.040;18.244;2023-09-19T06:58:32;7.50;;;1.80;;
57327;SDS011;43162;51.040;18.244;2023-09-19T07:00:58;4.40;;;1.70;;
57327;SDS011;43162;51.040;18.244;2023-09-19T07:03:23;6.40;;;2.30;;
57327;SDS011;43162;51.040;18.244;2023-09-19T07:05:51;3.80;;;1.20;;
57327;SDS011;43162;51.040;18.244;2023-09-19T07:08:18;4.90;;;1.00;;
57327;SDS011;43162;51.040;18.244;2023-09-19T07:10:45;6.90;;;1.60;;
57327;SDS011;43162;51.040;18.244;2023-09-19T07:13:13;3.70;;;1.30;;
57327;SDS011;43162;51.040;18.244;2023-09-19T07:15:43;6.00;;;0.90;;
57327;SDS011;43162;51.040;18.244;2023-09-19T07:18:12;7.00;;;1.40;;
57327;SDS011;43162;51.040;18.244;2023-09-19T07:20:39;3.90;;;1.20;;
57327;SDS011;43162;51.040;18.244;2023-09-19T07:23:05;3.60;;;1.00;;
57327;SDS011;43162;51.040;18.244;2023-09-19T07:25:31;3.20;;;1.00;;
57327;SDS011;43162;51.040;18.244;2023-09-19T07:27:57;5.60;;;1.30;;
57327;SDS011;43162;51.040;18.244;2023-09-19T07:30:25;5.00;;;0.80;;
57327;SDS011;43162;51.040;18.244;2023-09-19T07:32:51;6.30;;;1.20;;
57327;SDS011;43162;51.040;18.244;2023-09-19T07:35:17;5.00;;;1.40;;
57327;SDS011;43162;51.040;18.244;2023-09-19T07:37:45;4.50;;;1.40;;
57327;SDS011;43162;51.040;18.244;2023-09-19T07:40:15;5.90;;;1.50;;
57327;SDS011;43162;51.040;18.244;2023-09-19T07:42:41;4.80;;;1.20;;
57327;SDS011;43162;51.040;18.244;2023-09-19T07:45:07;3.50;;;1.40;;
57327;SDS011;43162;51.040;18.244;2023-09-19T07:47:33;4.30;;;1.50;;
57327;SDS011;43162;51.040;18.244;2023-09-19T07:49:59;7.50;;;1.40;;
57327;SDS011;43162;51.040;18.244;2023-09-19T07:52:27;4.20;;;1.70;;
57327;SDS011;43162;51.040;18.244;2023-09-19T07:54:54;2.10;;;1.50;;
57327;SDS011;43162;51.040;18.244;2023-09-19T07:57:19;4.10;;;1.70;;
57327;SDS011;43162;51.040;18.244;2023-09-19T07:59:45;4.80;;;1.70;;
57327;SDS011;43162;51.040;18.244;2023-09-19T08:02:11;4.70;;;1.20;;
57327;SDS011;43162;51.040;18.244;2023-09-19T08:04:44;4.00;;;1.20;;
57327;SDS011;43162;51.040;18.244;2023-09-19T08:07:11;5.50;;;2.00;;
57327;SDS011;43162;51.040;18.244;2023-09-19T08:09:38;5.60;;;1.60;;
57327;SDS011;43162;51.040;18.244;2023-09-19T08:12:04;5.40;;;2.00;;
57327;SDS011;43162;51.040;18.244;2023-09-19T08:14:30;8.50;;;1.80;;
57327;SDS011;43162;51.040;18.244;2023-09-19T08:16:58;4.30;;;1.60;;
57327;SDS011;43162;51.040;18.244;2023-09-19T08:19:24;1.70;;;1.10;;
57327;SDS011;43162;51.040;18.244;2023-09-19T08:21:57;2.10;;;1.50;;
57327;SDS011;43162;51.040;18.244;2023-09-19T08:24:26;5.80;;;1.60;;
57327;SDS011;43162;51.040;18.244;2023-09-19T08:26:57;5.40;;;1.90;;
57327;SDS011;43162;51.040;18.244;2023-09-19T08:29:23;4.20;;;2.00;;
57327;SDS011;43162;51.040;18.244;2023-09-19T08:34:18;2.80;;;1.50;;
57327;SDS011;43162;51.040;18.244;2023-09-19T08:36:44;3.50;;;1.70;;
57327;SDS011;43162;51.040;18.244;2023-09-19T08:39:10;5.00;;;1.80;;
57327;SDS011;43162;51.040;18.244;2023-09-19T08:41:36;4.00;;;1.70;;
57327;SDS011;43162;51.040;18.244;2023-09-19T08:44:02;3.20;;;1.90;;
57327;SDS011;43162;51.040;18.244;2023-09-19T08:46:29;3.80;;;1.70;;
57327;SDS011;43162;51.040;18.244;2023-09-19T08:49:05;4.10;;;1.50;;
57327;SDS011;43162;51.040;18.244;2023-09-19T08:51:39;4.30;;;1.80;;
57327;SDS011;43162;51.040;18.244;2023-09-19T08:54:07;4.10;;;1.60;;
57327;SDS011;43162;51.040;18.244;2023-09-19T08:56:32;4.90;;;1.80;;
57327;SDS011;43162;51.040;18.244;2023-09-19T08:59:04;4.80;;;2.00;;
57327;SDS011;43162;51.040;18.244;2023-09-19T09:01:32;6.90;;;1.90;;
57327;SDS011;43162;51.040;18.244;2023-09-19T09:03:58;3.70;;;1.80;;
57327;SDS011;43162;51.040;18.244;2023-09-19T09:06:24;4.70;;;1.90;;
57327;SDS011;43162;51.040;18.244;2023-09-19T09:08:50;5.40;;;2.60;;
57327;SDS011;43162;51.040;18.244;2023-09-19T09:11:16;6.20;;;1.80;;
57327;SDS011;43162;51.040;18.244;2023-09-19T09:13:46;2.50;;;1.80;;
57327;SDS011;43162;51.040;18.244;2023-09-19T09:16:12;4.50;;;2.30;;
57327;SDS011;43162;51.040;18.244;2023-09-19T09:18:39;5.40;;;2.10;;
57327;SDS011;43162;51.040;18.244;2023-09-19T09:21:05;4.60;;;2.00;;
57327;SDS011;43162;51.040;18.244;2023-09-19T09:23:30;3.60;;;2.00;;
57327;SDS011;43162;51.040;18.244;2023-09-19T09:25:58;4.60;;;1.80;;
57327;SDS011;43162;51.040;18.244;2023-09-19T09:28:27;4.80;;;2.00;;
57327;SDS011;43162;51.040;18.244;2023-09-19T09:30:59;5.70;;;1.90;;
57327;SDS011;43162;51.040;18.244;2023-09-19T09:33:25;6.60;;;2.10;;
57327;SDS011;43162;51.040;18.244;2023-09-19T09:36:08;2.60;;;1.70;;
57327;SDS011;43162;51.040;18.244;2023-09-19T09:38:44;3.20;;;1.90;;
57327;SDS011;43162;51.040;18.244;2023-09-19T09:41:10;5.20;;;2.30;;
57327;SDS011;43162;51.040;18.244;2023-09-19T09:43:41;2.70;;;2.10;;
57327;SDS011;43162;51.040;18.244;2023-09-19T09:49:02;4.40;;;2.40;;
57327;SDS011;43162;51.040;18.244;2023-09-19T09:51:50;6.30;;;2.80;;
57327;SDS011;43162;51.040;18.244;2023-09-19T09:54:25;3.90;;;2.10;;
57327;SDS011;43162;51.040;18.244;2023-09-19T09:57:00;5.60;;;2.40;;
57327;SDS011;43162;51.040;18.244;2023-09-19T10:02:13;7.50;;;2.90;;
57327;SDS011;43162;51.040;18.244;2023-09-19T10:04:42;10.60;;;3.00;;
57327;SDS011;43162;51.040;18.244;2023-09-19T10:07:26;3.10;;;2.10;;
57327;SDS011;43162;51.040;18.244;2023-09-19T10:09:58;10.60;;;2.50;;
57327;SDS011;43162;51.040;18.244;2023-09-19T10:12:31;8.30;;;2.10;;
57327;SDS011;43162;51.040;18.244;2023-09-19T10:14:56;4.60;;;2.70;;
57327;SDS011;43162;51.040;18.244;2023-09-19T10:17:23;5.90;;;2.70;;
57327;SDS011;43162;51.040;18.244;2023-09-19T10:19:54;5.60;;;2.90;;
57327;SDS011;43162;51.040;18.244;2023-09-19T10:22:22;5.90;;;2.70;;
57327;SDS011;43162;51.040;18.244;2023-09-19T10:24:49;4.60;;;2.50;;
57327;SDS011;43162;51.040;18.244;2023-09-19T10:27:18;2.80;;;1.80;;
57327;SDS011;43162;51.040;18.244;2023-09-19T10:29:45;3.60;;;2.30;;
57327;SDS011;43162;51.040;18.244;2023-09-19T10:32:13;7.80;;;2.30;;
57327;SDS011;43162;51.040;18.244;2023-09-19T10:34:43;5.80;;;2.30;;
57327;SDS011;43162;51.040;18.244;2023-09-19T10:37:10;4.30;;;2.30;;
57327;SDS011;43162;51.040;18.244;2023-09-19T10:39:38;2.90;;;2.00;;
57327;SDS011;43162;51.040;18.244;2023-09-19T10:42:06;3.90;;;2.50;;
57327;SDS011;43162;51.040;18.244;2023-09-19T10:44:34;3.70;;;2.20;;
57327;SDS011;43162;51.040;18.244;2023-09-19T10:47:04;3.00;;;2.00;;
57327;SDS011;43162;51.040;18.244;2023-09-19T10:49:32;4.50;;;2.60;;
57327;SDS011;43162;51.040;18.244;2023-09-19T10:51:58;6.60;;;2.20;;
57327;SDS011;43162;51.040;18.244;2023-09-19T10:54:26;5.10;;;2.20;;
57327;SDS011;43162;51.040;18.244;2023-09-19T10:56:53;6.00;;;2.70;;
57327;SDS011;43162;51.040;18.244;2023-09-19T10:59:20;4.20;;;2.00;;
57327;SDS011;43162;51.040;18.244;2023-09-19T11:01:50;2.20;;;1.60;;
57327;SDS011;43162;51.040;18.244;2023-09-19T11:14:54;2.60;;;1.20;;
57327;SDS011;43162;51.040;18.244;2023-09-19T11:28:36;1.50;;;1.20;;
57327;SDS011;43162;51.040;18.244;2023-09-19T11:33:47;3.20;;;1.60;;
57327;SDS011;43162;51.040;18.244;2023-09-19T11:36:16;3.50;;;1.30;;
57327;SDS011;43162;51.040;18.244;2023-09-19T11:46:29;3.40;;;1.50;;
57327;SDS011;43162;51.040;18.244;2023-09-19T11:48:56;5.20;;;1.10;;
57327;SDS011;43162;51.040;18.244;2023-09-19T11:51:37;2.60;;;0.90;;
57327;SDS011;43162;51.040;18.244;2023-09-19T11:54:10;3.90;;;1.00;;
57327;SDS011;43162;51.040;18.244;2023-09-19T11:56:38;2.50;;;0.70;;
57327;SDS011;43162;51.040;18.244;2023-09-19T11:59:06;5.20;;;1.10;;
57327;SDS011;43162;51.040;18.244;2023-09-19T12:01:33;1.60;;;0.90;;
57327;SDS011;43162;51.040;18.244;2023-09-19T12:04:01;3.00;;;0.90;;
57327;SDS011;43162;51.040;18.244;2023-09-19T12:06:28;1.00;;;0.70;;
57327;SDS011;43162;51.040;18.244;2023-09-19T12:08:54;1.70;;;0.70;;
57327;SDS011;43162;51.040;18.244;2023-09-19T12:11:22;3.80;;;1.20;;
57327;SDS011;43162;51.040;18.244;2023-09-19T12:13:52;12.10;;;1.30;;
57327;SDS011;43162;51.040;18.244;2023-09-19T12:16:19;1.90;;;0.90;;
57327;SDS011;43162;51.040;18.244;2023-09-19T12:18:47;1.70;;;1.00;;
57327;SDS011;43162;51.040;18.244;2023-09-19T12:21:25;1.40;;;0.90;;
57327;SDS011;43162;51.040;18.244;2023-09-19T12:26:30;1.10;;;0.60;;
57327;SDS011;43162;51.040;18.244;2023-09-19T12:28:59;3.50;;;1.50;;
57327;SDS011;43162;51.040;18.244;2023-09-19T12:31:27;8.40;;;0.90;;
57327;SDS011;43162;51.040;18.244;2023-09-19T12:33:56;2.10;;;0.90;;
57327;SDS011;43162;51.040;18.244;2023-09-19T12:36:22;1.80;;;0.90;;
57327;SDS011;43162;51.040;18.244;2023-09-19T12:38:54;2.20;;;1.50;;
57327;SDS011;43162;51.040;18.244;2023-09-19T12:41:21;3.70;;;1.50;;
57327;SDS011;43162;51.040;18.244;2023-09-19T12:43:47;2.50;;;1.10;;
57327;SDS011;43162;51.040;18.244;2023-09-19T12:46:13;3.80;;;1.00;;
57327;SDS011;43162;51.040;18.244;2023-09-19T12:48:40;5.40;;;1.30;;
57327;SDS011;43162;51.040;18.244;2023-09-19T12:51:12;1.50;;;0.80;;
57327;SDS011;43162;51.040;18.244;2023-09-19T12:56:08;0.70;;;0.70;;
57327;SDS011;43162;51.040;18.244;2023-09-19T12:58:56;1.00;;;0.80;;
57327;SDS011;43162;51.040;18.244;2023-09-19T13:01:20;2.00;;;0.70;;
57327;SDS011;43162;51.040;18.244;2023-09-19T13:06:37;4.20;;;1.10;;
57327;SDS011;43162;51.040;18.244;2023-09-19T13:09:09;2.70;;;1.10;;
57327;SDS011;43162;51.040;18.244;2023-09-19T13:11:36;3.00;;;0.70;;
57327;SDS011;43162;51.040;18.244;2023-09-19T13:22:00;1.00;;;0.90;;
57327;SDS011;43162;51.040;18.244;2023-09-19T13:24:26;2.50;;;1.30;;
57327;SDS011;43162;51.040;18.244;2023-09-19T13:26:52;1.90;;;0.90;;
57327;SDS011;43162;51.040;18.244;2023-09-19T13:29:17;3.40;;;0.80;;
57327;SDS011;43162;51.040;18.244;2023-09-19T13:31:50;2.00;;;0.80;;
57327;SDS011;43162;51.040;18.244;2023-09-19T13:34:16;2.10;;;0.90;;
57327;SDS011;43162;51.040;18.244;2023-09-19T13:36:43;1.20;;;0.80;;
57327;SDS011;43162;51.040;18.244;2023-09-19T13:39:09;4.60;;;1.20;;
57327;SDS011;43162;51.040;18.244;2023-09-19T13:41:35;1.70;;;0.70;;
57327;SDS011;43162;51.040;18.244;2023-09-19T13:44:02;4.10;;;0.80;;
57327;SDS011;43162;51.040;18.244;2023-09-19T13:46:28;2.80;;;0.80;;
57327;SDS011;43162;51.040;18.244;2023-09-19T13:48:53;6.90;;;1.20;;
57327;SDS011;43162;51.040;18.244;2023-09-19T13:51:23;1.40;;;0.80;;
57327;SDS011;43162;51.040;18.244;2023-09-19T13:53:49;1.80;;;0.70;;
57327;SDS011;43162;51.040;18.244;2023-09-19T13:56:15;5.60;;;0.70;;
57327;SDS011;43162;51.040;18.244;2023-09-19T13:58:41;2.40;;;0.80;;
57327;SDS011;43162;51.040;18.244;2023-09-19T14:01:07;3.40;;;0.90;;
57327;SDS011;43162;51.040;18.244;2023-09-19T14:03:37;1.20;;;0.70;;
57327;SDS011;43162;51.040;18.244;2023-09-19T14:06:03;1.40;;;0.80;;
57327;SDS011;43162;51.040;18.244;2023-09-19T14:08:29;1.60;;;0.70;;
57327;SDS011;43162;51.040;18.244;2023-09-19T14:10:54;3.10;;;0.90;;
57327;SDS011;43162;51.040;18.244;2023-09-19T14:13:20;3.90;;;0.80;;
57327;SDS011;43162;51.040;18.244;2023-09-19T14:15:46;1.30;;;0.80;;
57327;SDS011;43162;51.040;18.244;2023-09-19T14:18:11;1.10;;;0.60;;
57327;SDS011;43162;51.040;18.244;2023-09-19T14:20:40;1.80;;;0.80;;
57327;SDS011;43162;51.040;18.244;2023-09-19T14:23:06;4.60;;;0.70;;
57327;SDS011;43162;51.040;18.244;2023-09-19T14:25:33;2.00;;;0.70;;
57327;SDS011;43162;51.040;18.244;2023-09-19T14:27:59;1.70;;;0.60;;
57327;SDS011;43162;51.040;18.244;2023-09-19T14:30:24;4.50;;;0.70;;
57327;SDS011;43162;51.040;18.244;2023-09-19T14:32:50;1.40;;;0.70;;
57327;SDS011;43162;51.040;18.244;2023-09-19T14:35:16;2.00;;;0.70;;
57327;SDS011;43162;51.040;18.244;2023-09-19T14:37:42;1.40;;;0.60;;
57327;SDS011;43162;51.040;18.244;2023-09-19T14:40:08;1.50;;;0.40;;
57327;SDS011;43162;51.040;18.244;2023-09-19T14:42:38;3.70;;;0.80;;
57327;SDS011;43162;51.040;18.244;2023-09-19T14:45:04;1.00;;;0.60;;
57327;SDS011;43162;51.040;18.244;2023-09-19T14:47:30;4.70;;;0.50;;
57327;SDS011;43162;51.040;18.244;2023-09-19T14:50:02;0.50;;;0.40;;
57327;SDS011;43162;51.040;18.244;2023-09-19T14:52:32;1.20;;;0.70;;
57327;SDS011;43162;51.040;18.244;2023-09-19T14:54:57;5.40;;;0.90;;
57327;SDS011;43162;51.040;18.244;2023-09-19T14:57:23;1.60;;;0.70;;
57327;SDS011;43162;51.040;18.244;2023-09-19T14:59:49;0.60;;;0.50;;
57327;SDS011;43162;51.040;18.244;2023-09-19T15:02:15;2.60;;;0.50;;
57327;SDS011;43162;51.040;18.244;2023-09-19T15:04:42;1.60;;;0.60;;
57327;SDS011;43162;51.040;18.244;2023-09-19T15:07:13;0.50;;;0.40;;
57327;SDS011;43162;51.040;18.244;2023-09-19T15:09:41;1.60;;;0.80;;
57327;SDS011;43162;51.040;18.244;2023-09-19T15:12:06;1.20;;;0.60;;
57327;SDS011;43162;51.040;18.244;2023-09-19T15:14:32;1.00;;;0.50;;
57327;SDS011;43162;51.040;18.244;2023-09-19T15:16:57;0.80;;;0.60;;
57327;SDS011;43162;51.040;18.244;2023-09-19T15:19:23;3.70;;;0.60;;
57327;SDS011;43162;51.040;18.244;2023-09-19T15:21:49;2.20;;;0.70;;
57327;SDS011;43162;51.040;18.244;2023-09-19T15:24:14;0.80;;;0.60;;
57327;SDS011;43162;51.040;18.244;2023-09-19T15:26:40;1.80;;;0.70;;
57327;SDS011;43162;51.040;18.244;2023-09-19T15:29:06;1.40;;;1.00;;
57327;SDS011;43162;51.040;18.244;2023-09-19T15:31:31;1.90;;;0.80;;
57327;SDS011;43162;51.040;18.244;2023-09-19T15:33:57;1.40;;;0.80;;
57327;SDS011;43162;51.040;18.244;2023-09-19T15:36:24;1.50;;;0.80;;
57327;SDS011;43162;51.040;18.244;2023-09-19T15:41:16;1.00;;;0.70;;